sensor_id;sensor_type;location;lat;lon;timestamp;P1;durP1;ratioP1;P2;durP2;ratioP2
75645;SDS011;64237;52.438;13.240;2023-04-01T00:01:17;3.92;;;1.40;;
75645;SDS011;64237;52.438;13.240;2023-04-01T00:03:42;4.88;;;1.60;;
75645;SDS011;64237;52.438;13.240;2023-04-01T00:06:09;15.10;;;1.88;;
75645;SDS011;64237;52.438;13.240;2023-04-01T00:08:37;4.97;;;1.65;;
75645;SDS011;64237;52.438;13.240;2023-04-01T00:11:02;3.83;;;1.40;;
75645;SDS011;64237;52.438;13.240;2023-04-01T00:13:28;4.37;;;1.80;;
75645;SDS011;64237;52.438;13.240;2023-04-01T00:15:54;5.03;;;1.50;;
75645;SDS011;64237;52.438;13.240;2023-04-01T00:18:24;7.68;;;1.40;;
75645;SDS011;64237;52.438;13.240;2023-04-01T00:20:51;4.50;;;1.50;;
75645;SDS011;64237;52.438;13.240;2023-04-01T00:23:17;3.63;;;1.23;;
75645;SDS011;64237;52.438;13.240;2023-04-01T00:25:43;5.10;;;1.45;;
75645;SDS011;64237;52.438;13.240;2023-04-01T00:28:10;2.42;;;1.17;;
75645;SDS011;64237;52.438;13.240;2023-04-01T00:30:35;3.90;;;1.30;;
75645;SDS011;64237;52.438;13.240;2023-04-01T00:33:01;3.13;;;1.30;;
75645;SDS011;64237;52.438;13.240;2023-04-01T00:35:27;6.50;;;1.83;;
75645;SDS011;64237;52.438;13.240;2023-04-01T00:37:53;5.25;;;1.50;;
75645;SDS011;64237;52.438;13.240;2023-04-01T00:40:25;3.17;;;1.77;;
75645;SDS011;64237;52.438;13.240;2023-04-01T00:42:53;3.30;;;1.40;;
75645;SDS011;64237;52.438;13.240;2023-04-01T00:48:27;4.15;;;1.30;;
75645;SDS011;64237;52.438;13.240;2023-04-01T00:53:47;3.17;;;1.25;;
75645;SDS011;64237;52.438;13.240;2023-04-01T00:56:27;2.40;;;1.20;;
75645;SDS011;64237;52.438;13.240;2023-04-01T00:59:02;4.43;;;1.70;;
75645;SDS011;64237;52.438;13.240;2023-04-01T01:01:33;4.22;;;1.52;;
75645;SDS011;64237;52.438;13.240;2023-04-01T01:04:00;5.22;;;1.40;;
75645;SDS011;64237;52.438;13.240;2023-04-01T01:12:36;3.20;;;1.20;;
75645;SDS011;64237;52.438;13.240;2023-04-01T01:17:51;4.35;;;1.60;;
75645;SDS011;64237;52.438;13.240;2023-04-01T01:28:26;6.07;;;1.30;;
75645;SDS011;64237;52.438;13.240;2023-04-01T01:31:16;4.47;;;1.35;;
75645;SDS011;64237;52.438;13.240;2023-04-01T01:33:50;4.22;;;1.52;;
75645;SDS011;64237;52.438;13.240;2023-04-01T01:36:27;5.20;;;1.52;;
75645;SDS011;64237;52.438;13.240;2023-04-01T01:38:56;4.47;;;1.50;;
75645;SDS011;64237;52.438;13.240;2023-04-01T01:41:22;2.42;;;1.10;;
75645;SDS011;64237;52.438;13.240;2023-04-01T01:43:51;4.78;;;1.73;;
75645;SDS011;64237;52.438;13.240;2023-04-01T01:46:20;3.90;;;1.40;;
75645;SDS011;64237;52.438;13.240;2023-04-01T01:51:18;3.35;;;1.50;;
75645;SDS011;64237;52.438;13.240;2023-04-01T01:53:46;3.85;;;1.50;;
75645;SDS011;64237;52.438;13.240;2023-04-01T01:56:14;4.05;;;1.50;;
75645;SDS011;64237;52.438;13.240;2023-04-01T01:58:44;4.72;;;1.45;;
75645;SDS011;64237;52.438;13.240;2023-04-01T02:01:16;4.70;;;1.63;;
75645;SDS011;64237;52.438;13.240;2023-04-01T02:03:47;7.43;;;1.98;;
75645;SDS011;64237;52.438;13.240;2023-04-01T02:06:15;4.00;;;1.75;;
75645;SDS011;64237;52.438;13.240;2023-04-01T02:11:56;4.53;;;1.92;;
75645;SDS011;64237;52.438;13.240;2023-04-01T02:14:26;3.33;;;1.60;;
75645;SDS011;64237;52.438;13.240;2023-04-01T02:17:07;6.18;;;1.90;;
75645;SDS011;64237;52.438;13.240;2023-04-01T02:19:36;4.07;;;1.83;;
75645;SDS011;64237;52.438;13.240;2023-04-01T02:22:06;5.07;;;1.90;;
75645;SDS011;64237;52.438;13.240;2023-04-01T02:24:36;4.93;;;1.90;;
75645;SDS011;64237;52.438;13.240;2023-04-01T02:27:04;4.80;;;2.00;;
75645;SDS011;64237;52.438;13.240;2023-04-01T02:29:30;4.43;;;2.03;;
75645;SDS011;64237;52.438;13.240;2023-04-01T02:31:56;3.95;;;1.80;;
75645;SDS011;64237;52.438;13.240;2023-04-01T02:34:26;5.40;;;1.70;;
75645;SDS011;64237;52.438;13.240;2023-04-01T02:36:51;6.47;;;2.20;;
75645;SDS011;64237;52.438;13.240;2023-04-01T02:39:31;4.35;;;1.67;;
75645;SDS011;64237;52.438;13.240;2023-04-01T02:41:56;4.70;;;1.60;;
75645;SDS011;64237;52.438;13.240;2023-04-01T02:44:21;3.95;;;1.77;;
75645;SDS011;64237;52.438;13.240;2023-04-01T02:46:47;6.00;;;2.05;;
75645;SDS011;64237;52.438;13.240;2023-04-01T02:49:12;5.78;;;1.88;;
75645;SDS011;64237;52.438;13.240;2023-04-01T02:51:41;5.95;;;2.05;;
75645;SDS011;64237;52.438;13.240;2023-04-01T02:54:06;6.78;;;1.90;;
75645;SDS011;64237;52.438;13.240;2023-04-01T02:56:31;4.10;;;1.80;;
75645;SDS011;64237;52.438;13.240;2023-04-01T02:58:57;4.93;;;2.08;;
75645;SDS011;64237;52.438;13.240;2023-04-01T03:01:25;6.43;;;2.42;;
75645;SDS011;64237;52.438;13.240;2023-04-01T03:03:50;4.40;;;1.67;;
75645;SDS011;64237;52.438;13.240;2023-04-01T03:06:16;5.67;;;1.70;;
75645;SDS011;64237;52.438;13.240;2023-04-01T03:08:45;5.13;;;1.90;;
75645;SDS011;64237;52.438;13.240;2023-04-01T03:11:11;4.00;;;1.70;;
75645;SDS011;64237;52.438;13.240;2023-04-01T03:13:36;4.07;;;1.77;;
75645;SDS011;64237;52.438;13.240;2023-04-01T03:16:02;5.55;;;2.03;;
75645;SDS011;64237;52.438;13.240;2023-04-01T03:18:27;4.20;;;1.80;;
75645;SDS011;64237;52.438;13.240;2023-04-01T03:20:53;4.75;;;1.83;;
75645;SDS011;64237;52.438;13.240;2023-04-01T03:23:18;6.18;;;2.00;;
75645;SDS011;64237;52.438;13.240;2023-04-01T03:25:45;5.50;;;1.83;;
75645;SDS011;64237;52.438;13.240;2023-04-01T03:28:11;4.35;;;1.70;;
75645;SDS011;64237;52.438;13.240;2023-04-01T03:30:38;6.68;;;1.80;;
75645;SDS011;64237;52.438;13.240;2023-04-01T03:33:03;6.38;;;1.92;;
75645;SDS011;64237;52.438;13.240;2023-04-01T03:35:29;4.53;;;2.00;;
75645;SDS011;64237;52.438;13.240;2023-04-01T03:37:55;3.72;;;1.60;;
75645;SDS011;64237;52.438;13.240;2023-04-01T03:40:20;4.97;;;1.70;;
75645;SDS011;64237;52.438;13.240;2023-04-01T03:42:46;6.65;;;1.73;;
75645;SDS011;64237;52.438;13.240;2023-04-01T03:45:11;5.22;;;1.90;;
75645;SDS011;64237;52.438;13.240;2023-04-01T03:47:38;4.75;;;1.98;;
75645;SDS011;64237;52.438;13.240;2023-04-01T03:50:04;3.75;;;1.77;;
75645;SDS011;64237;52.438;13.240;2023-04-01T03:52:30;4.30;;;1.70;;
75645;SDS011;64237;52.438;13.240;2023-04-01T03:55:02;4.83;;;1.70;;
75645;SDS011;64237;52.438;13.240;2023-04-01T03:57:27;4.07;;;1.85;;
75645;SDS011;64237;52.438;13.240;2023-04-01T03:59:58;5.78;;;1.67;;
75645;SDS011;64237;52.438;13.240;2023-04-01T04:02:26;4.63;;;1.80;;
75645;SDS011;64237;52.438;13.240;2023-04-01T04:04:52;4.20;;;1.55;;
75645;SDS011;64237;52.438;13.240;2023-04-01T04:07:17;5.50;;;1.50;;
75645;SDS011;64237;52.438;13.240;2023-04-01T04:09:45;4.27;;;1.77;;
75645;SDS011;64237;52.438;13.240;2023-04-01T04:12:11;4.25;;;1.83;;
75645;SDS011;64237;52.438;13.240;2023-04-01T04:14:36;4.28;;;1.75;;
75645;SDS011;64237;52.438;13.240;2023-04-01T04:17:01;5.73;;;2.23;;
75645;SDS011;64237;52.438;13.240;2023-04-01T04:19:30;5.73;;;1.70;;
75645;SDS011;64237;52.438;13.240;2023-04-01T04:21:58;5.57;;;1.80;;
75645;SDS011;64237;52.438;13.240;2023-04-01T04:24:26;5.32;;;2.20;;
75645;SDS011;64237;52.438;13.240;2023-04-01T04:26:52;8.98;;;2.83;;
75645;SDS011;64237;52.438;13.240;2023-04-01T04:29:20;5.13;;;1.88;;
75645;SDS011;64237;52.438;13.240;2023-04-01T04:31:47;5.32;;;2.05;;
75645;SDS011;64237;52.438;13.240;2023-04-01T04:34:13;6.93;;;2.23;;
75645;SDS011;64237;52.438;13.240;2023-04-01T04:36:38;5.57;;;1.98;;
75645;SDS011;64237;52.438;13.240;2023-04-01T04:39:03;3.77;;;1.87;;
75645;SDS011;64237;52.438;13.240;2023-04-01T04:41:28;5.90;;;2.77;;
75645;SDS011;64237;52.438;13.240;2023-04-01T04:43:54;7.82;;;2.35;;
75645;SDS011;64237;52.438;13.240;2023-04-01T04:46:24;5.25;;;2.10;;
75645;SDS011;64237;52.438;13.240;2023-04-01T04:48:49;7.18;;;2.40;;
75645;SDS011;64237;52.438;13.240;2023-04-01T04:51:15;5.68;;;2.00;;
75645;SDS011;64237;52.438;13.240;2023-04-01T04:53:46;5.93;;;2.40;;
75645;SDS011;64237;52.438;13.240;2023-04-01T04:56:12;5.60;;;2.10;;
75645;SDS011;64237;52.438;13.240;2023-04-01T04:58:37;6.55;;;2.05;;
75645;SDS011;64237;52.438;13.240;2023-04-01T05:01:08;5.32;;;1.70;;
75645;SDS011;64237;52.438;13.240;2023-04-01T05:03:35;3.75;;;1.83;;
75645;SDS011;64237;52.438;13.240;2023-04-01T05:06:01;4.00;;;1.90;;
75645;SDS011;64237;52.438;13.240;2023-04-01T05:08:29;5.88;;;2.00;;
75645;SDS011;64237;52.438;13.240;2023-04-01T05:10:55;7.68;;;2.50;;
75645;SDS011;64237;52.438;13.240;2023-04-01T05:13:21;4.43;;;1.80;;
75645;SDS011;64237;52.438;13.240;2023-04-01T05:15:46;5.93;;;2.10;;
75645;SDS011;64237;52.438;13.240;2023-04-01T05:18:12;5.32;;;2.10;;
75645;SDS011;64237;52.438;13.240;2023-04-01T05:20:37;6.22;;;1.90;;
75645;SDS011;64237;52.438;13.240;2023-04-01T05:23:02;4.10;;;1.65;;
75645;SDS011;64237;52.438;13.240;2023-04-01T05:25:28;6.40;;;2.03;;
75645;SDS011;64237;52.438;13.240;2023-04-01T05:27:56;5.60;;;1.90;;
75645;SDS011;64237;52.438;13.240;2023-04-01T05:30:21;5.93;;;1.77;;
75645;SDS011;64237;52.438;13.240;2023-04-01T05:32:47;4.38;;;1.60;;
75645;SDS011;64237;52.438;13.240;2023-04-01T05:35:12;5.10;;;2.03;;
75645;SDS011;64237;52.438;13.240;2023-04-01T05:37:37;9.53;;;2.30;;
75645;SDS011;64237;52.438;13.240;2023-04-01T05:40:03;6.97;;;2.10;;
75645;SDS011;64237;52.438;13.240;2023-04-01T05:42:29;6.45;;;1.77;;
75645;SDS011;64237;52.438;13.240;2023-04-01T05:44:58;4.60;;;1.83;;
75645;SDS011;64237;52.438;13.240;2023-04-01T05:47:23;6.97;;;2.33;;
75645;SDS011;64237;52.438;13.240;2023-04-01T05:49:48;5.93;;;1.83;;
75645;SDS011;64237;52.438;13.240;2023-04-01T05:52:17;7.30;;;2.00;;
75645;SDS011;64237;52.438;13.240;2023-04-01T05:54:45;6.00;;;2.00;;
75645;SDS011;64237;52.438;13.240;2023-04-01T05:57:17;5.55;;;1.85;;
75645;SDS011;64237;52.438;13.240;2023-04-01T05:59:45;4.45;;;1.73;;
75645;SDS011;64237;52.438;13.240;2023-04-01T06:02:10;7.30;;;2.30;;
75645;SDS011;64237;52.438;13.240;2023-04-01T06:04:39;6.30;;;2.50;;
75645;SDS011;64237;52.438;13.240;2023-04-01T06:09:36;8.25;;;2.20;;
75645;SDS011;64237;52.438;13.240;2023-04-01T06:14:37;6.72;;;2.15;;
75645;SDS011;64237;52.438;13.240;2023-04-01T06:34:06;6.88;;;2.38;;
75645;SDS011;64237;52.438;13.240;2023-04-01T06:50:51;6.93;;;2.20;;
75645;SDS011;64237;52.438;13.240;2023-04-01T06:56:30;6.28;;;1.70;;
75645;SDS011;64237;52.438;13.240;2023-04-01T06:59:02;4.63;;;1.80;;
75645;SDS011;64237;52.438;13.240;2023-04-01T07:01:39;6.63;;;1.83;;
75645;SDS011;64237;52.438;13.240;2023-04-01T07:04:16;5.47;;;1.70;;
75645;SDS011;64237;52.438;13.240;2023-04-01T07:07:01;7.40;;;1.92;;
75645;SDS011;64237;52.438;13.240;2023-04-01T07:09:32;6.10;;;1.75;;
75645;SDS011;64237;52.438;13.240;2023-04-01T07:12:06;6.22;;;1.50;;
75645;SDS011;64237;52.438;13.240;2023-04-01T07:14:46;6.72;;;1.70;;
75645;SDS011;64237;52.438;13.240;2023-04-01T07:17:20;4.55;;;1.30;;
75645;SDS011;64237;52.438;13.240;2023-04-01T07:19:56;3.88;;;1.33;;
75645;SDS011;64237;52.438;13.240;2023-04-01T07:22:38;4.68;;;1.20;;
75645;SDS011;64237;52.438;13.240;2023-04-01T07:25:13;4.10;;;1.30;;
75645;SDS011;64237;52.438;13.240;2023-04-01T07:27:45;5.25;;;1.65;;
75645;SDS011;64237;52.438;13.240;2023-04-01T07:30:15;4.82;;;1.40;;
75645;SDS011;64237;52.438;13.240;2023-04-01T07:35:54;5.13;;;1.35;;
75645;SDS011;64237;52.438;13.240;2023-04-01T07:38:40;2.67;;;1.30;;
75645;SDS011;64237;52.438;13.240;2023-04-01T07:52:19;2.60;;;1.13;;
75645;SDS011;64237;52.438;13.240;2023-04-01T08:03:07;3.88;;;1.10;;
75645;SDS011;64237;52.438;13.240;2023-04-01T08:08:24;2.63;;;1.10;;
75645;SDS011;64237;52.438;13.240;2023-04-01T08:10:54;5.15;;;1.10;;
75645;SDS011;64237;52.438;13.240;2023-04-01T08:21:43;7.28;;;1.35;;
75645;SDS011;64237;52.438;13.240;2023-04-01T08:27:03;4.05;;;0.98;;
75645;SDS011;64237;52.438;13.240;2023-04-01T08:29:37;4.93;;;1.48;;
75645;SDS011;64237;52.438;13.240;2023-04-01T08:32:11;4.15;;;1.35;;
75645;SDS011;64237;52.438;13.240;2023-04-01T08:34:42;4.13;;;0.90;;
75645;SDS011;64237;52.438;13.240;2023-04-01T08:37:11;3.60;;;1.02;;
75645;SDS011;64237;52.438;13.240;2023-04-01T08:39:44;5.50;;;1.20;;
75645;SDS011;64237;52.438;13.240;2023-04-01T08:47:38;3.60;;;1.02;;
75645;SDS011;64237;52.438;13.240;2023-04-01T08:50:36;4.43;;;1.23;;
75645;SDS011;64237;52.438;13.240;2023-04-01T08:53:14;7.80;;;1.17;;
75645;SDS011;64237;52.438;13.240;2023-04-01T09:01:54;2.97;;;0.90;;
75645;SDS011;64237;52.438;13.240;2023-04-01T09:10:24;5.35;;;0.98;;
75645;SDS011;64237;52.438;13.240;2023-04-01T09:14:02;4.22;;;1.20;;
75645;SDS011;64237;52.438;13.240;2023-04-01T09:19:24;8.27;;;1.50;;
75645;SDS011;64237;52.438;13.240;2023-04-01T09:24:38;3.08;;;0.93;;
75645;SDS011;64237;52.438;13.240;2023-04-01T09:27:17;2.83;;;0.98;;
75645;SDS011;64237;52.438;13.240;2023-04-01T09:35:39;3.13;;;1.38;;
75645;SDS011;64237;52.438;13.240;2023-04-01T09:41:30;2.58;;;1.27;;
75645;SDS011;64237;52.438;13.240;2023-04-01T09:44:08;4.18;;;1.70;;
75645;SDS011;64237;52.438;13.240;2023-04-01T09:46:51;6.38;;;2.63;;
75645;SDS011;64237;52.438;13.240;2023-04-01T10:25:57;12.52;;;4.50;;
75645;SDS011;64237;52.438;13.240;2023-04-01T10:28:44;9.35;;;3.88;;
75645;SDS011;64237;52.438;13.240;2023-04-01T10:31:23;10.45;;;4.30;;
75645;SDS011;64237;52.438;13.240;2023-04-01T10:56:50;13.35;;;5.88;;
75645;SDS011;64237;52.438;13.240;2023-04-01T11:13:13;8.45;;;3.72;;
75645;SDS011;64237;52.438;13.240;2023-04-01T11:24:29;9.57;;;4.78;;
75645;SDS011;64237;52.438;13.240;2023-04-01T11:32:24;9.43;;;4.90;;
75645;SDS011;64237;52.438;13.240;2023-04-01T11:42:48;10.13;;;4.90;;
75645;SDS011;64237;52.438;13.240;2023-04-01T11:45:34;9.70;;;5.22;;
75645;SDS011;64237;52.438;13.240;2023-04-01T11:48:23;11.95;;;5.68;;
75645;SDS011;64237;52.438;13.240;2023-04-01T11:51:43;8.88;;;4.55;;
75645;SDS011;64237;52.438;13.240;2023-04-01T11:57:10;8.45;;;4.63;;
75645;SDS011;64237;52.438;13.240;2023-04-01T12:07:53;9.20;;;4.70;;
75645;SDS011;64237;52.438;13.240;2023-04-01T12:13:32;8.93;;;4.57;;
75645;SDS011;64237;52.438;13.240;2023-04-01T12:22:05;5.93;;;2.72;;
75645;SDS011;64237;52.438;13.240;2023-04-01T12:27:41;7.07;;;2.38;;
75645;SDS011;64237;52.438;13.240;2023-04-01T12:38:19;6.00;;;2.47;;
75645;SDS011;64237;52.438;13.240;2023-04-01T12:43:28;5.13;;;2.17;;
75645;SDS011;64237;52.438;13.240;2023-04-01T12:46:19;7.57;;;2.92;;
75645;SDS011;64237;52.438;13.240;2023-04-01T12:59:46;9.52;;;5.03;;
75645;SDS011;64237;52.438;13.240;2023-04-01T13:02:37;9.50;;;5.72;;
75645;SDS011;64237;52.438;13.240;2023-04-01T13:32:47;9.80;;;5.50;;
75645;SDS011;64237;52.438;13.240;2023-04-01T13:43:43;10.40;;;5.53;;
75645;SDS011;64237;52.438;13.240;2023-04-01T14:00:32;13.07;;;6.35;;
75645;SDS011;64237;52.438;13.240;2023-04-01T14:05:52;10.73;;;5.75;;
75645;SDS011;64237;52.438;13.240;2023-04-01T14:09:15;10.25;;;5.32;;
75645;SDS011;64237;52.438;13.240;2023-04-01T14:11:17;9.48;;;5.18;;
75645;SDS011;64237;52.438;13.240;2023-04-01T14:17:02;9.98;;;5.43;;
75645;SDS011;64237;52.438;13.240;2023-04-01T14:47:47;9.07;;;4.68;;
75645;SDS011;64237;52.438;13.240;2023-04-01T14:50:23;8.85;;;4.65;;
75645;SDS011;64237;52.438;13.240;2023-04-01T14:53:17;11.18;;;5.22;;
75645;SDS011;64237;52.438;13.240;2023-04-01T14:55:47;9.80;;;4.40;;
75645;SDS011;64237;52.438;13.240;2023-04-01T14:58:17;8.55;;;4.25;;
75645;SDS011;64237;52.438;13.240;2023-04-01T15:05:56;8.77;;;4.47;;
75645;SDS011;64237;52.438;13.240;2023-04-01T15:13:56;9.13;;;4.20;;
75645;SDS011;64237;52.438;13.240;2023-04-01T15:24:20;9.55;;;4.47;;
75645;SDS011;64237;52.438;13.240;2023-04-01T15:27:01;9.80;;;4.57;;
75645;SDS011;64237;52.438;13.240;2023-04-01T15:35:21;7.07;;;3.80;;
75645;SDS011;64237;52.438;13.240;2023-04-01T15:38:22;7.35;;;3.25;;
75645;SDS011;64237;52.438;13.240;2023-04-01T15:43:30;8.57;;;3.80;;
75645;SDS011;64237;52.438;13.240;2023-04-01T16:05:37;7.43;;;3.50;;
75645;SDS011;64237;52.438;13.240;2023-04-01T16:16:52;7.97;;;3.42;;
75645;SDS011;64237;52.438;13.240;2023-04-01T16:22:14;7.75;;;3.38;;
75645;SDS011;64237;52.438;13.240;2023-04-01T16:24:48;8.10;;;3.67;;
75645;SDS011;64237;52.438;13.240;2023-04-01T16:27:36;8.00;;;3.80;;
75645;SDS011;64237;52.438;13.240;2023-04-01T16:33:01;8.48;;;3.95;;
75645;SDS011;64237;52.438;13.240;2023-04-01T16:35:47;8.80;;;3.60;;
75645;SDS011;64237;52.438;13.240;2023-04-01T16:46:34;8.65;;;3.65;;
75645;SDS011;64237;52.438;13.240;2023-04-01T16:56:54;7.22;;;3.22;;
75645;SDS011;64237;52.438;13.240;2023-04-01T17:13:08;7.68;;;2.95;;
75645;SDS011;64237;52.438;13.240;2023-04-01T17:21:20;5.75;;;2.80;;
75645;SDS011;64237;52.438;13.240;2023-04-01T17:24:38;5.85;;;2.75;;
75645;SDS011;64237;52.438;13.240;2023-04-01T17:27:20;5.85;;;2.50;;
75645;SDS011;64237;52.438;13.240;2023-04-01T17:30:16;5.93;;;2.50;;
75645;SDS011;64237;52.438;13.240;2023-04-01T17:52:11;8.20;;;3.20;;
75645;SDS011;64237;52.438;13.240;2023-04-01T18:02:54;8.43;;;3.63;;
75645;SDS011;64237;52.438;13.240;2023-04-01T18:19:16;6.75;;;3.13;;
75645;SDS011;64237;52.438;13.240;2023-04-01T18:27:39;10.07;;;3.42;;
75645;SDS011;64237;52.438;13.240;2023-04-01T18:32:44;9.32;;;3.13;;
75645;SDS011;64237;52.438;13.240;2023-04-01T18:41:03;6.88;;;2.72;;
75645;SDS011;64237;52.438;13.240;2023-04-01T18:43:43;7.60;;;2.92;;
75645;SDS011;64237;52.438;13.240;2023-04-01T18:52:17;6.60;;;3.03;;
75645;SDS011;64237;52.438;13.240;2023-04-01T18:55:37;7.70;;;3.00;;
75645;SDS011;64237;52.438;13.240;2023-04-01T19:00:49;7.38;;;2.63;;
75645;SDS011;64237;52.438;13.240;2023-04-01T19:03:46;7.28;;;3.10;;
75645;SDS011;64237;52.438;13.240;2023-04-01T19:06:23;8.90;;;3.00;;
75645;SDS011;64237;52.438;13.240;2023-04-01T19:08:54;9.18;;;3.22;;
75645;SDS011;64237;52.438;13.240;2023-04-01T19:27:29;9.15;;;4.10;;
75645;SDS011;64237;52.438;13.240;2023-04-01T19:36:25;7.72;;;3.72;;
75645;SDS011;64237;52.438;13.240;2023-04-01T19:41:50;10.20;;;3.75;;
75645;SDS011;64237;52.438;13.240;2023-04-01T19:44:29;11.07;;;3.75;;
75645;SDS011;64237;52.438;13.240;2023-04-01T19:52:53;9.45;;;3.53;;
75645;SDS011;64237;52.438;13.240;2023-04-01T20:01:00;11.30;;;3.90;;
75645;SDS011;64237;52.438;13.240;2023-04-01T20:11:57;9.55;;;3.70;;
75645;SDS011;64237;52.438;13.240;2023-04-01T20:14:48;9.27;;;3.13;;
75645;SDS011;64237;52.438;13.240;2023-04-01T20:17:23;9.32;;;3.45;;
75645;SDS011;64237;52.438;13.240;2023-04-01T20:20:17;10.57;;;3.95;;
75645;SDS011;64237;52.438;13.240;2023-04-01T20:23:06;8.50;;;3.42;;
75645;SDS011;64237;52.438;13.240;2023-04-01T20:26:04;10.45;;;3.90;;
75645;SDS011;64237;52.438;13.240;2023-04-01T20:31:31;9.98;;;4.07;;
75645;SDS011;64237;52.438;13.240;2023-04-01T20:53:44;10.50;;;3.83;;
75645;SDS011;64237;52.438;13.240;2023-04-01T20:56:29;10.88;;;4.00;;
75645;SDS011;64237;52.438;13.240;2023-04-01T21:01:44;11.77;;;3.88;;
75645;SDS011;64237;52.438;13.240;2023-04-01T21:33:41;8.48;;;4.38;;
75645;SDS011;64237;52.438;13.240;2023-04-01T21:53:51;6.95;;;2.90;;
75645;SDS011;64237;52.438;13.240;2023-04-01T21:56:31;8.65;;;3.15;;
75645;SDS011;64237;52.438;13.240;2023-04-01T22:12:53;10.73;;;4.40;;
75645;SDS011;64237;52.438;13.240;2023-04-01T22:15:40;10.02;;;4.13;;
75645;SDS011;64237;52.438;13.240;2023-04-01T22:18:20;9.18;;;3.83;;
75645;SDS011;64237;52.438;13.240;2023-04-01T22:27:01;8.73;;;3.80;;
75645;SDS011;64237;52.438;13.240;2023-04-01T22:35:10;7.78;;;3.33;;
75645;SDS011;64237;52.438;13.240;2023-04-01T22:43:43;9.80;;;3.20;;
75645;SDS011;64237;52.438;13.240;2023-04-01T22:46:55;8.43;;;3.08;;
75645;SDS011;64237;52.438;13.240;2023-04-01T22:52:24;7.00;;;2.50;;
75645;SDS011;64237;52.438;13.240;2023-04-01T22:54:54;8.35;;;2.25;;
75645;SDS011;64237;52.438;13.240;2023-04-01T23:00:30;6.68;;;2.53;;
75645;SDS011;64237;52.438;13.240;2023-04-01T23:05:32;6.85;;;2.50;;
75645;SDS011;64237;52.438;13.240;2023-04-01T23:11:08;5.13;;;2.30;;
75645;SDS011;64237;52.438;13.240;2023-04-01T23:13:47;4.95;;;1.92;;
75645;SDS011;64237;52.438;13.240;2023-04-01T23:16:41;5.55;;;2.30;;
75645;SDS011;64237;52.438;13.240;2023-04-01T23:22:12;8.50;;;2.60;;
75645;SDS011;64237;52.438;13.240;2023-04-01T23:24:48;7.18;;;2.67;;
75645;SDS011;64237;52.438;13.240;2023-04-01T23:27:31;8.93;;;2.95;;
75645;SDS011;64237;52.438;13.240;2023-04-01T23:35:47;5.47;;;2.30;;
75645;SDS011;64237;52.438;13.240;2023-04-01T23:38:19;3.67;;;1.90;;
75645;SDS011;64237;52.438;13.240;2023-04-01T23:40:51;5.90;;;2.28;;
75645;SDS011;64237;52.438;13.240;2023-04-01T23:43:28;5.85;;;2.20;;
75645;SDS011;64237;52.438;13.240;2023-04-01T23:46:00;6.80;;;2.70;;
75645;SDS011;64237;52.438;13.240;2023-04-01T23:48:32;5.28;;;2.35;;
75645;SDS011;64237;52.438;13.240;2023-04-01T23:51:09;6.07;;;2.17;;
75645;SDS011;64237;52.438;13.240;2023-04-01T23:56:43;4.93;;;2.10;;
75645;SDS011;64237;52.438;13.240;2023-04-01T23:59:16;4.75;;;2.08;;
